sensor_id;sensor_type;location;lat;lon;timestamp;temperature;humidity
7576;DHT22;3829;50.798;4.358;2023-04-24T00:02:23;9.40;99.90
7576;DHT22;3829;50.798;4.358;2023-04-24T00:04:49;9.50;99.90
7576;DHT22;3829;50.798;4.358;2023-04-24T00:07:15;9.50;99.90
7576;DHT22;3829;50.798;4.358;2023-04-24T00:09:42;9.40;99.90
7576;DHT22;3829;50.798;4.358;2023-04-24T00:12:08;9.40;99.90
7576;DHT22;3829;50.798;4.358;2023-04-24T00:14:34;9.40;99.90
7576;DHT22;3829;50.798;4.358;2023-04-24T00:17:00;9.40;99.90
7576;DHT22;3829;50.798;4.358;2023-04-24T00:19:27;9.40;99.90
7576;DHT22;3829;50.798;4.358;2023-04-24T00:21:54;9.40;99.90
7576;DHT22;3829;50.798;4.358;2023-04-24T00:24:20;9.50;99.90
7576;DHT22;3829;50.798;4.358;2023-04-24T00:26:46;9.50;99.90
7576;DHT22;3829;50.798;4.358;2023-04-24T00:29:11;9.60;99.90
7576;DHT22;3829;50.798;4.358;2023-04-24T00:31:37;9.60;99.90
7576;DHT22;3829;50.798;4.358;2023-04-24T00:34:03;9.50;99.90
7576;DHT22;3829;50.798;4.358;2023-04-24T00:36:29;9.50;99.90
7576;DHT22;3829;50.798;4.358;2023-04-24T00:38:56;9.50;99.90
7576;DHT22;3829;50.798;4.358;2023-04-24T00:41:22;9.40;99.90
7576;DHT22;3829;50.798;4.358;2023-04-24T00:43:48;9.30;99.90
7576;DHT22;3829;50.798;4.358;2023-04-24T00:46:14;9.30;99.90
7576;DHT22;3829;50.798;4.358;2023-04-24T00:48:41;9.30;99.90
7576;DHT22;3829;50.798;4.358;2023-04-24T00:51:06;9.40;99.90
7576;DHT22;3829;50.798;4.358;2023-04-24T00:53:32;9.50;99.90
7576;DHT22;3829;50.798;4.358;2023-04-24T00:55:58;9.40;99.90
7576;DHT22;3829;50.798;4.358;2023-04-24T00:58:25;9.40;99.90
7576;DHT22;3829;50.798;4.358;2023-04-24T01:00:51;9.40;99.90
7576;DHT22;3829;50.798;4.358;2023-04-24T01:03:20;9.40;99.90
7576;DHT22;3829;50.798;4.358;2023-04-24T01:05:46;9.40;99.90
7576;DHT22;3829;50.798;4.358;2023-04-24T01:08:13;9.30;99.90
7576;DHT22;3829;50.798;4.358;2023-04-24T01:10:40;9.30;99.90
7576;DHT22;3829;50.798;4.358;2023-04-24T01:13:08;9.20;99.90
7576;DHT22;3829;50.798;4.358;2023-04-24T01:15:34;9.00;99.90
7576;DHT22;3829;50.798;4.358;2023-04-24T01:18:00;9.00;99.90
7576;DHT22;3829;50.798;4.358;2023-04-24T01:20:25;8.90;99.90
7576;DHT22;3829;50.798;4.358;2023-04-24T01:22:52;8.90;99.90
7576;DHT22;3829;50.798;4.358;2023-04-24T01:25:18;8.90;99.90
7576;DHT22;3829;50.798;4.358;2023-04-24T01:27:44;8.80;99.90
7576;DHT22;3829;50.798;4.358;2023-04-24T01:30:10;8.90;99.90
7576;DHT22;3829;50.798;4.358;2023-04-24T01:32:36;8.80;99.90
7576;DHT22;3829;50.798;4.358;2023-04-24T01:35:03;8.80;99.90
7576;DHT22;3829;50.798;4.358;2023-04-24T01:37:29;8.80;99.90
7576;DHT22;3829;50.798;4.358;2023-04-24T01:39:54;8.80;99.90
7576;DHT22;3829;50.798;4.358;2023-04-24T01:42:20;8.70;99.90
7576;DHT22;3829;50.798;4.358;2023-04-24T01:44:47;8.70;99.90
7576;DHT22;3829;50.798;4.358;2023-04-24T01:47:13;8.80;99.90
7576;DHT22;3829;50.798;4.358;2023-04-24T01:49:39;8.70;99.90
7576;DHT22;3829;50.798;4.358;2023-04-24T01:52:06;8.70;99.90
7576;DHT22;3829;50.798;4.358;2023-04-24T01:54:32;8.70;99.90
7576;DHT22;3829;50.798;4.358;2023-04-24T01:56:57;8.60;99.90
7576;DHT22;3829;50.798;4.358;2023-04-24T01:59:23;8.60;99.90
7576;DHT22;3829;50.798;4.358;2023-04-24T02:01:50;8.60;99.90
7576;DHT22;3829;50.798;4.358;2023-04-24T02:04:16;8.70;99.90
7576;DHT22;3829;50.798;4.358;2023-04-24T02:06:41;8.60;99.90
7576;DHT22;3829;50.798;4.358;2023-04-24T02:09:07;8.60;99.90
7576;DHT22;3829;50.798;4.358;2023-04-24T02:11:33;8.60;99.90
7576;DHT22;3829;50.798;4.358;2023-04-24T02:13:58;8.60;99.90
7576;DHT22;3829;50.798;4.358;2023-04-24T02:16:24;8.70;99.90
7576;DHT22;3829;50.798;4.358;2023-04-24T02:18:50;8.70;99.90
7576;DHT22;3829;50.798;4.358;2023-04-24T02:21:15;8.70;99.90
7576;DHT22;3829;50.798;4.358;2023-04-24T02:23:41;8.70;99.90
7576;DHT22;3829;50.798;4.358;2023-04-24T02:26:06;8.70;99.90
7576;DHT22;3829;50.798;4.358;2023-04-24T02:28:32;8.70;99.90
7576;DHT22;3829;50.798;4.358;2023-04-24T02:30:58;8.70;99.90
7576;DHT22;3829;50.798;4.358;2023-04-24T02:33:23;8.60;99.90
7576;DHT22;3829;50.798;4.358;2023-04-24T02:35:49;8.60;99.90
7576;DHT22;3829;50.798;4.358;2023-04-24T02:38:15;8.60;99.90
7576;DHT22;3829;50.798;4.358;2023-04-24T02:40:40;8.60;99.90
7576;DHT22;3829;50.798;4.358;2023-04-24T02:43:06;8.60;99.90
7576;DHT22;3829;50.798;4.358;2023-04-24T02:45:31;8.70;99.90
7576;DHT22;3829;50.798;4.358;2023-04-24T02:47:59;8.70;99.90
7576;DHT22;3829;50.798;4.358;2023-04-24T02:50:25;8.70;99.90
7576;DHT22;3829;50.798;4.358;2023-04-24T02:52:50;8.70;99.90
7576;DHT22;3829;50.798;4.358;2023-04-24T02:55:16;8.70;99.90
7576;DHT22;3829;50.798;4.358;2023-04-24T02:57:42;8.70;99.90
7576;DHT22;3829;50.798;4.358;2023-04-24T03:00:07;8.70;99.90
7576;DHT22;3829;50.798;4.358;2023-04-24T03:02:34;8.70;99.90
7576;DHT22;3829;50.798;4.358;2023-04-24T03:05:00;8.70;99.90
7576;DHT22;3829;50.798;4.358;2023-04-24T03:07:28;8.70;99.90
7576;DHT22;3829;50.798;4.358;2023-04-24T03:09:54;8.70;99.90
7576;DHT22;3829;50.798;4.358;2023-04-24T03:12:20;8.70;99.90
7576;DHT22;3829;50.798;4.358;2023-04-24T03:14:45;8.70;99.90
7576;DHT22;3829;50.798;4.358;2023-04-24T03:17:11;8.70;99.90
7576;DHT22;3829;50.798;4.358;2023-04-24T03:19:36;8.70;99.90
7576;DHT22;3829;50.798;4.358;2023-04-24T03:22:03;8.70;99.90
7576;DHT22;3829;50.798;4.358;2023-04-24T03:24:29;8.60;99.90
7576;DHT22;3829;50.798;4.358;2023-04-24T03:26:54;8.70;99.90
7576;DHT22;3829;50.798;4.358;2023-04-24T03:29:22;8.60;99.90
7576;DHT22;3829;50.798;4.358;2023-04-24T03:31:47;8.60;99.90
7576;DHT22;3829;50.798;4.358;2023-04-24T03:34:13;8.60;99.90
7576;DHT22;3829;50.798;4.358;2023-04-24T03:36:38;8.60;99.90
7576;DHT22;3829;50.798;4.358;2023-04-24T03:39:04;8.50;99.90
7576;DHT22;3829;50.798;4.358;2023-04-24T03:41:29;8.50;99.90
7576;DHT22;3829;50.798;4.358;2023-04-24T03:43:55;8.40;99.90
7576;DHT22;3829;50.798;4.358;2023-04-24T03:46:21;8.50;99.90
7576;DHT22;3829;50.798;4.358;2023-04-24T03:48:47;8.50;99.90
7576;DHT22;3829;50.798;4.358;2023-04-24T03:51:12;8.50;99.90
7576;DHT22;3829;50.798;4.358;2023-04-24T03:53:38;8.50;99.90
7576;DHT22;3829;50.798;4.358;2023-04-24T03:56:03;8.50;99.90
7576;DHT22;3829;50.798;4.358;2023-04-24T03:58:29;8.50;99.90
7576;DHT22;3829;50.798;4.358;2023-04-24T04:00:54;8.50;99.90
7576;DHT22;3829;50.798;4.358;2023-04-24T04:03:22;8.60;99.90
7576;DHT22;3829;50.798;4.358;2023-04-24T04:05:48;8.60;99.90
7576;DHT22;3829;50.798;4.358;2023-04-24T04:08:13;8.70;99.90
7576;DHT22;3829;50.798;4.358;2023-04-24T04:10:39;8.60;99.90
7576;DHT22;3829;50.798;4.358;2023-04-24T04:13:04;8.70;99.90
7576;DHT22;3829;50.798;4.358;2023-04-24T04:15:31;8.70;99.90
7576;DHT22;3829;50.798;4.358;2023-04-24T04:17:57;8.70;99.90
7576;DHT22;3829;50.798;4.358;2023-04-24T04:20:23;8.70;99.90
7576;DHT22;3829;50.798;4.358;2023-04-24T04:22:48;8.80;99.90
7576;DHT22;3829;50.798;4.358;2023-04-24T04:25:14;8.80;99.90
7576;DHT22;3829;50.798;4.358;2023-04-24T04:27:39;8.80;99.90
7576;DHT22;3829;50.798;4.358;2023-04-24T04:30:07;8.80;99.90
7576;DHT22;3829;50.798;4.358;2023-04-24T04:32:34;8.80;99.90
7576;DHT22;3829;50.798;4.358;2023-04-24T04:35:00;8.80;99.90
7576;DHT22;3829;50.798;4.358;2023-04-24T04:37:30;8.90;99.90
7576;DHT22;3829;50.798;4.358;2023-04-24T04:39:57;8.80;99.90
7576;DHT22;3829;50.798;4.358;2023-04-24T04:42:24;8.70;99.90
7576;DHT22;3829;50.798;4.358;2023-04-24T04:44:50;8.70;99.90
7576;DHT22;3829;50.798;4.358;2023-04-24T04:47:16;8.60;99.90
7576;DHT22;3829;50.798;4.358;2023-04-24T04:49:42;8.50;99.90
7576;DHT22;3829;50.798;4.358;2023-04-24T04:52:09;8.50;99.90
7576;DHT22;3829;50.798;4.358;2023-04-24T04:54:34;8.40;99.90
7576;DHT22;3829;50.798;4.358;2023-04-24T04:57:00;8.40;99.90
7576;DHT22;3829;50.798;4.358;2023-04-24T04:59:26;8.50;99.90
7576;DHT22;3829;50.798;4.358;2023-04-24T05:01:52;8.50;99.90
7576;DHT22;3829;50.798;4.358;2023-04-24T05:04:18;8.40;99.90
7576;DHT22;3829;50.798;4.358;2023-04-24T05:06:43;8.40;99.90
7576;DHT22;3829;50.798;4.358;2023-04-24T05:09:09;8.40;99.90
7576;DHT22;3829;50.798;4.358;2023-04-24T05:11:35;8.30;99.90
7576;DHT22;3829;50.798;4.358;2023-04-24T05:14:01;8.30;99.90
7576;DHT22;3829;50.798;4.358;2023-04-24T05:16:26;8.30;99.90
7576;DHT22;3829;50.798;4.358;2023-04-24T05:18:52;8.30;99.90
7576;DHT22;3829;50.798;4.358;2023-04-24T05:21:17;8.30;99.90
7576;DHT22;3829;50.798;4.358;2023-04-24T05:23:43;8.40;99.90
7576;DHT22;3829;50.798;4.358;2023-04-24T05:26:09;8.30;99.90
7576;DHT22;3829;50.798;4.358;2023-04-24T05:28:34;8.30;99.90
7576;DHT22;3829;50.798;4.358;2023-04-24T05:31:02;8.40;99.90
7576;DHT22;3829;50.798;4.358;2023-04-24T05:33:27;8.40;99.90
7576;DHT22;3829;50.798;4.358;2023-04-24T05:35:53;8.40;99.90
7576;DHT22;3829;50.798;4.358;2023-04-24T05:38:19;8.30;99.90
7576;DHT22;3829;50.798;4.358;2023-04-24T05:40:45;8.20;99.90
7576;DHT22;3829;50.798;4.358;2023-04-24T05:43:11;8.20;99.90
7576;DHT22;3829;50.798;4.358;2023-04-24T05:45:38;8.20;99.90
7576;DHT22;3829;50.798;4.358;2023-04-24T05:48:03;8.10;99.90
7576;DHT22;3829;50.798;4.358;2023-04-24T05:50:29;8.10;99.90
7576;DHT22;3829;50.798;4.358;2023-04-24T05:52:55;8.20;99.90
7576;DHT22;3829;50.798;4.358;2023-04-24T05:55:24;8.20;99.90
7576;DHT22;3829;50.798;4.358;2023-04-24T05:57:49;8.30;99.90
7576;DHT22;3829;50.798;4.358;2023-04-24T06:00:15;8.40;99.90
7576;DHT22;3829;50.798;4.358;2023-04-24T06:02:41;8.40;99.90
7576;DHT22;3829;50.798;4.358;2023-04-24T06:05:07;8.40;99.90
7576;DHT22;3829;50.798;4.358;2023-04-24T06:07:33;8.30;99.90
7576;DHT22;3829;50.798;4.358;2023-04-24T06:09:59;8.30;99.90
7576;DHT22;3829;50.798;4.358;2023-04-24T06:12:25;8.30;99.90
7576;DHT22;3829;50.798;4.358;2023-04-24T06:14:51;8.30;99.90
7576;DHT22;3829;50.798;4.358;2023-04-24T06:17:17;8.30;99.90
7576;DHT22;3829;50.798;4.358;2023-04-24T06:19:42;8.30;99.90
7576;DHT22;3829;50.798;4.358;2023-04-24T06:22:08;8.20;99.90
7576;DHT22;3829;50.798;4.358;2023-04-24T06:24:34;8.30;99.90
7576;DHT22;3829;50.798;4.358;2023-04-24T06:27:00;8.20;99.90
7576;DHT22;3829;50.798;4.358;2023-04-24T06:29:27;8.20;99.90
7576;DHT22;3829;50.798;4.358;2023-04-24T06:31:52;8.20;99.90
7576;DHT22;3829;50.798;4.358;2023-04-24T06:34:18;8.20;99.90
7576;DHT22;3829;50.798;4.358;2023-04-24T06:36:43;8.10;99.90
7576;DHT22;3829;50.798;4.358;2023-04-24T06:39:09;8.10;99.90
7576;DHT22;3829;50.798;4.358;2023-04-24T06:41:35;8.10;99.90
7576;DHT22;3829;50.798;4.358;2023-04-24T06:44:01;8.30;99.90
7576;DHT22;3829;50.798;4.358;2023-04-24T06:46:26;8.30;99.90
7576;DHT22;3829;50.798;4.358;2023-04-24T06:48:53;8.40;99.90
7576;DHT22;3829;50.798;4.358;2023-04-24T06:51:23;8.40;99.90
7576;DHT22;3829;50.798;4.358;2023-04-24T06:53:49;8.40;99.90
7576;DHT22;3829;50.798;4.358;2023-04-24T06:56:15;8.50;99.90
7576;DHT22;3829;50.798;4.358;2023-04-24T06:58:41;8.60;99.90
7576;DHT22;3829;50.798;4.358;2023-04-24T07:01:07;8.70;99.90
7576;DHT22;3829;50.798;4.358;2023-04-24T07:03:32;8.70;99.90
7576;DHT22;3829;50.798;4.358;2023-04-24T07:05:58;8.80;99.90
7576;DHT22;3829;50.798;4.358;2023-04-24T07:08:24;8.70;99.90
7576;DHT22;3829;50.798;4.358;2023-04-24T07:10:50;8.70;99.90
7576;DHT22;3829;50.798;4.358;2023-04-24T07:13:16;8.70;99.90
7576;DHT22;3829;50.798;4.358;2023-04-24T07:15:42;8.70;99.90
7576;DHT22;3829;50.798;4.358;2023-04-24T07:18:08;8.80;99.90
7576;DHT22;3829;50.798;4.358;2023-04-24T07:20:34;8.70;99.90
7576;DHT22;3829;50.798;4.358;2023-04-24T07:23:00;8.70;99.90
7576;DHT22;3829;50.798;4.358;2023-04-24T07:25:25;8.80;99.90
7576;DHT22;3829;50.798;4.358;2023-04-24T07:27:51;8.70;99.90
7576;DHT22;3829;50.798;4.358;2023-04-24T07:30:17;8.80;99.90
7576;DHT22;3829;50.798;4.358;2023-04-24T07:32:42;8.80;99.90
7576;DHT22;3829;50.798;4.358;2023-04-24T07:35:09;8.80;99.90
7576;DHT22;3829;50.798;4.358;2023-04-24T07:37:35;8.90;99.90
7576;DHT22;3829;50.798;4.358;2023-04-24T07:40:01;8.90;99.90
7576;DHT22;3829;50.798;4.358;2023-04-24T07:42:27;8.90;99.90
7576;DHT22;3829;50.798;4.358;2023-04-24T07:44:53;8.90;99.90
7576;DHT22;3829;50.798;4.358;2023-04-24T07:47:19;8.90;99.90
7576;DHT22;3829;50.798;4.358;2023-04-24T07:49:44;8.90;99.90
7576;DHT22;3829;50.798;4.358;2023-04-24T07:52:10;8.90;99.90
7576;DHT22;3829;50.798;4.358;2023-04-24T07:54:35;8.80;99.90
7576;DHT22;3829;50.798;4.358;2023-04-24T07:57:03;8.90;99.90
7576;DHT22;3829;50.798;4.358;2023-04-24T07:59:28;8.90;99.90
7576;DHT22;3829;50.798;4.358;2023-04-24T08:01:54;9.00;99.90
7576;DHT22;3829;50.798;4.358;2023-04-24T08:04:20;9.20;99.90
7576;DHT22;3829;50.798;4.358;2023-04-24T08:06:47;9.10;99.90
7576;DHT22;3829;50.798;4.358;2023-04-24T08:09:12;9.40;99.90
7576;DHT22;3829;50.798;4.358;2023-04-24T08:11:38;9.40;99.90
7576;DHT22;3829;50.798;4.358;2023-04-24T08:14:04;9.50;99.90
7576;DHT22;3829;50.798;4.358;2023-04-24T08:16:29;9.60;99.90
7576;DHT22;3829;50.798;4.358;2023-04-24T08:18:55;9.40;99.90
7576;DHT22;3829;50.798;4.358;2023-04-24T08:21:21;9.60;99.90
7576;DHT22;3829;50.798;4.358;2023-04-24T08:23:46;9.70;99.90
7576;DHT22;3829;50.798;4.358;2023-04-24T08:26:13;9.80;99.90
7576;DHT22;3829;50.798;4.358;2023-04-24T08:28:38;9.80;99.90
7576;DHT22;3829;50.798;4.358;2023-04-24T08:31:04;10.00;99.90
7576;DHT22;3829;50.798;4.358;2023-04-24T08:33:30;10.20;99.90
7576;DHT22;3829;50.798;4.358;2023-04-24T08:36:02;10.20;99.90
7576;DHT22;3829;50.798;4.358;2023-04-24T08:38:27;10.10;99.90
7576;DHT22;3829;50.798;4.358;2023-04-24T08:40:53;10.00;99.90
7576;DHT22;3829;50.798;4.358;2023-04-24T08:43:21;9.90;99.90
7576;DHT22;3829;50.798;4.358;2023-04-24T08:45:48;9.90;99.90
7576;DHT22;3829;50.798;4.358;2023-04-24T08:48:14;9.80;99.90
7576;DHT22;3829;50.798;4.358;2023-04-24T08:50:40;9.80;99.90
7576;DHT22;3829;50.798;4.358;2023-04-24T08:53:08;9.90;99.90
7576;DHT22;3829;50.798;4.358;2023-04-24T08:55:34;10.00;99.90
7576;DHT22;3829;50.798;4.358;2023-04-24T08:58:01;10.20;99.90
7576;DHT22;3829;50.798;4.358;2023-04-24T09:00:28;10.40;99.90
7576;DHT22;3829;50.798;4.358;2023-04-24T09:02:55;10.50;99.90
7576;DHT22;3829;50.798;4.358;2023-04-24T09:05:22;10.70;99.90
7576;DHT22;3829;50.798;4.358;2023-04-24T09:07:54;10.90;99.90
7576;DHT22;3829;50.798;4.358;2023-04-24T09:10:24;11.20;99.90
7576;DHT22;3829;50.798;4.358;2023-04-24T09:12:51;11.40;99.90
7576;DHT22;3829;50.798;4.358;2023-04-24T09:15:19;11.70;99.90
7576;DHT22;3829;50.798;4.358;2023-04-24T09:17:46;11.80;99.90
7576;DHT22;3829;50.798;4.358;2023-04-24T09:20:12;12.10;99.90
7576;DHT22;3829;50.798;4.358;2023-04-24T09:22:37;12.00;99.90
7576;DHT22;3829;50.798;4.358;2023-04-24T09:25:05;11.60;99.90
7576;DHT22;3829;50.798;4.358;2023-04-24T09:27:33;11.50;99.90
7576;DHT22;3829;50.798;4.358;2023-04-24T09:29:59;11.10;99.90
7576;DHT22;3829;50.798;4.358;2023-04-24T09:32:25;10.90;99.90
7576;DHT22;3829;50.798;4.358;2023-04-24T09:35:09;10.90;99.90
7576;DHT22;3829;50.798;4.358;2023-04-24T09:37:37;11.00;99.90
7576;DHT22;3829;50.798;4.358;2023-04-24T09:40:15;10.90;99.90
7576;DHT22;3829;50.798;4.358;2023-04-24T09:42:45;11.00;99.90
7576;DHT22;3829;50.798;4.358;2023-04-24T09:45:11;11.30;99.90
7576;DHT22;3829;50.798;4.358;2023-04-24T09:47:38;11.90;99.90
7576;DHT22;3829;50.798;4.358;2023-04-24T09:50:16;12.10;99.90
7576;DHT22;3829;50.798;4.358;2023-04-24T09:52:44;11.60;99.90
7576;DHT22;3829;50.798;4.358;2023-04-24T09:55:12;11.20;99.90
7576;DHT22;3829;50.798;4.358;2023-04-24T09:57:48;11.10;99.90
7576;DHT22;3829;50.798;4.358;2023-04-24T10:00:18;11.20;99.90
7576;DHT22;3829;50.798;4.358;2023-04-24T10:02:44;11.40;99.90
7576;DHT22;3829;50.798;4.358;2023-04-24T10:05:11;11.30;99.90
7576;DHT22;3829;50.798;4.358;2023-04-24T10:07:38;11.20;99.90
7576;DHT22;3829;50.798;4.358;2023-04-24T10:10:04;11.20;99.90
7576;DHT22;3829;50.798;4.358;2023-04-24T10:12:30;11.50;99.90
7576;DHT22;3829;50.798;4.358;2023-04-24T10:14:57;11.70;99.90
7576;DHT22;3829;50.798;4.358;2023-04-24T10:17:24;11.80;99.90
7576;DHT22;3829;50.798;4.358;2023-04-24T10:19:51;11.60;99.90
7576;DHT22;3829;50.798;4.358;2023-04-24T10:22:17;11.60;99.90
7576;DHT22;3829;50.798;4.358;2023-04-24T10:24:44;11.50;99.90
7576;DHT22;3829;50.798;4.358;2023-04-24T10:27:11;11.30;99.90
7576;DHT22;3829;50.798;4.358;2023-04-24T10:29:38;11.50;99.90
7576;DHT22;3829;50.798;4.358;2023-04-24T10:32:07;11.70;99.90
7576;DHT22;3829;50.798;4.358;2023-04-24T10:34:32;11.60;99.90
7576;DHT22;3829;50.798;4.358;2023-04-24T10:36:58;11.60;99.90
7576;DHT22;3829;50.798;4.358;2023-04-24T10:39:24;11.60;99.90
7576;DHT22;3829;50.798;4.358;2023-04-24T10:41:50;11.40;99.90
7576;DHT22;3829;50.798;4.358;2023-04-24T10:44:17;11.10;99.90
7576;DHT22;3829;50.798;4.358;2023-04-24T10:46:46;11.40;99.90
7576;DHT22;3829;50.798;4.358;2023-04-24T10:49:12;11.50;99.90
7576;DHT22;3829;50.798;4.358;2023-04-24T10:51:49;11.80;99.90
7576;DHT22;3829;50.798;4.358;2023-04-24T10:54:26;11.90;99.90
7576;DHT22;3829;50.798;4.358;2023-04-24T10:56:52;11.70;99.90
7576;DHT22;3829;50.798;4.358;2023-04-24T10:59:27;11.90;99.90
7576;DHT22;3829;50.798;4.358;2023-04-24T11:01:54;12.40;99.90
7576;DHT22;3829;50.798;4.358;2023-04-24T11:04:33;12.40;99.90
7576;DHT22;3829;50.798;4.358;2023-04-24T11:07:00;12.20;99.90
7576;DHT22;3829;50.798;4.358;2023-04-24T11:09:27;11.90;99.90
7576;DHT22;3829;50.798;4.358;2023-04-24T11:12:04;11.50;99.90
7576;DHT22;3829;50.798;4.358;2023-04-24T11:15:02;11.70;99.90
7576;DHT22;3829;50.798;4.358;2023-04-24T11:17:37;11.70;99.90
7576;DHT22;3829;50.798;4.358;2023-04-24T11:20:05;12.20;99.90
7576;DHT22;3829;50.798;4.358;2023-04-24T11:22:34;12.70;99.90
7576;DHT22;3829;50.798;4.358;2023-04-24T11:25:02;12.80;99.90
7576;DHT22;3829;50.798;4.358;2023-04-24T11:27:31;12.80;99.90
7576;DHT22;3829;50.798;4.358;2023-04-24T11:30:00;12.80;99.90
7576;DHT22;3829;50.798;4.358;2023-04-24T11:32:30;12.20;99.90
7576;DHT22;3829;50.798;4.358;2023-04-24T11:34:58;12.30;99.90
7576;DHT22;3829;50.798;4.358;2023-04-24T11:37:26;12.50;99.90
7576;DHT22;3829;50.798;4.358;2023-04-24T11:39:54;12.90;99.90
7576;DHT22;3829;50.798;4.358;2023-04-24T11:42:21;13.30;99.90
7576;DHT22;3829;50.798;4.358;2023-04-24T11:44:47;13.40;99.90
7576;DHT22;3829;50.798;4.358;2023-04-24T11:47:14;13.10;99.90
7576;DHT22;3829;50.798;4.358;2023-04-24T11:49:39;13.00;99.90
7576;DHT22;3829;50.798;4.358;2023-04-24T11:52:05;12.90;99.90
7576;DHT22;3829;50.798;4.358;2023-04-24T11:54:31;12.80;99.90
7576;DHT22;3829;50.798;4.358;2023-04-24T11:56:57;12.80;99.90
7576;DHT22;3829;50.798;4.358;2023-04-24T11:59:23;13.00;99.90
7576;DHT22;3829;50.798;4.358;2023-04-24T12:01:49;13.20;99.90
7576;DHT22;3829;50.798;4.358;2023-04-24T12:04:17;12.90;99.90
7576;DHT22;3829;50.798;4.358;2023-04-24T12:07:01;13.30;99.90
7576;DHT22;3829;50.798;4.358;2023-04-24T12:09:26;13.10;99.90
7576;DHT22;3829;50.798;4.358;2023-04-24T12:11:55;13.20;99.90
7576;DHT22;3829;50.798;4.358;2023-04-24T12:14:24;13.80;99.90
7576;DHT22;3829;50.798;4.358;2023-04-24T12:16:50;13.80;99.90
7576;DHT22;3829;50.798;4.358;2023-04-24T12:19:24;13.40;99.90
7576;DHT22;3829;50.798;4.358;2023-04-24T12:22:00;13.20;99.90
7576;DHT22;3829;50.798;4.358;2023-04-24T12:24:26;13.10;99.90
7576;DHT22;3829;50.798;4.358;2023-04-24T12:26:51;13.00;99.90
7576;DHT22;3829;50.798;4.358;2023-04-24T12:29:20;13.40;99.90
7576;DHT22;3829;50.798;4.358;2023-04-24T12:31:46;13.30;99.90
7576;DHT22;3829;50.798;4.358;2023-04-24T12:34:20;13.50;99.90
7576;DHT22;3829;50.798;4.358;2023-04-24T12:36:47;13.70;99.90
7576;DHT22;3829;50.798;4.358;2023-04-24T12:39:15;13.50;99.90
7576;DHT22;3829;50.798;4.358;2023-04-24T12:41:54;13.80;99.90
7576;DHT22;3829;50.798;4.358;2023-04-24T12:44:19;14.40;99.90
7576;DHT22;3829;50.798;4.358;2023-04-24T12:46:45;14.50;99.90
7576;DHT22;3829;50.798;4.358;2023-04-24T12:49:10;14.60;99.90
7576;DHT22;3829;50.798;4.358;2023-04-24T12:51:36;14.60;99.90
7576;DHT22;3829;50.798;4.358;2023-04-24T12:54:02;14.90;99.90
7576;DHT22;3829;50.798;4.358;2023-04-24T12:56:27;14.70;99.90
7576;DHT22;3829;50.798;4.358;2023-04-24T12:58:53;14.30;99.90
7576;DHT22;3829;50.798;4.358;2023-04-24T13:01:18;14.20;99.90
7576;DHT22;3829;50.798;4.358;2023-04-24T13:03:44;13.90;99.90
7576;DHT22;3829;50.798;4.358;2023-04-24T13:06:10;13.90;99.90
7576;DHT22;3829;50.798;4.358;2023-04-24T13:08:35;14.20;99.90
7576;DHT22;3829;50.798;4.358;2023-04-24T13:11:01;14.60;99.90
7576;DHT22;3829;50.798;4.358;2023-04-24T13:13:27;14.40;99.90
7576;DHT22;3829;50.798;4.358;2023-04-24T13:15:52;14.20;99.90
7576;DHT22;3829;50.798;4.358;2023-04-24T13:18:18;14.20;99.90
7576;DHT22;3829;50.798;4.358;2023-04-24T13:20:43;13.60;99.90
7576;DHT22;3829;50.798;4.358;2023-04-24T13:23:09;13.60;99.90
7576;DHT22;3829;50.798;4.358;2023-04-24T13:25:36;13.90;99.90
7576;DHT22;3829;50.798;4.358;2023-04-24T13:28:04;13.70;99.90
7576;DHT22;3829;50.798;4.358;2023-04-24T13:30:30;13.70;99.90
7576;DHT22;3829;50.798;4.358;2023-04-24T13:32:56;13.70;99.90
7576;DHT22;3829;50.798;4.358;2023-04-24T13:35:22;13.90;99.90
7576;DHT22;3829;50.798;4.358;2023-04-24T13:37:47;14.60;99.90
7576;DHT22;3829;50.798;4.358;2023-04-24T13:40:13;15.00;99.90
7576;DHT22;3829;50.798;4.358;2023-04-24T13:42:38;15.00;99.90
7576;DHT22;3829;50.798;4.358;2023-04-24T13:45:04;14.70;99.90
7576;DHT22;3829;50.798;4.358;2023-04-24T13:47:30;14.50;99.90
7576;DHT22;3829;50.798;4.358;2023-04-24T13:49:56;14.80;99.90
7576;DHT22;3829;50.798;4.358;2023-04-24T13:52:22;15.30;99.90
7576;DHT22;3829;50.798;4.358;2023-04-24T13:54:47;15.50;99.90
7576;DHT22;3829;50.798;4.358;2023-04-24T13:57:13;15.80;99.90
7576;DHT22;3829;50.798;4.358;2023-04-24T13:59:39;15.40;99.90
7576;DHT22;3829;50.798;4.358;2023-04-24T14:02:05;15.20;99.90
7576;DHT22;3829;50.798;4.358;2023-04-24T14:04:31;14.90;99.90
7576;DHT22;3829;50.798;4.358;2023-04-24T14:06:56;14.70;99.90
7576;DHT22;3829;50.798;4.358;2023-04-24T14:09:22;14.70;99.90
7576;DHT22;3829;50.798;4.358;2023-04-24T14:11:48;14.80;99.90
7576;DHT22;3829;50.798;4.358;2023-04-24T14:14:13;14.60;99.90
7576;DHT22;3829;50.798;4.358;2023-04-24T14:16:39;14.30;99.90
7576;DHT22;3829;50.798;4.358;2023-04-24T14:19:05;14.20;99.90
7576;DHT22;3829;50.798;4.358;2023-04-24T14:21:32;13.80;99.90
7576;DHT22;3829;50.798;4.358;2023-04-24T14:23:57;13.70;99.90
7576;DHT22;3829;50.798;4.358;2023-04-24T14:26:23;13.40;99.90
7576;DHT22;3829;50.798;4.358;2023-04-24T14:28:50;13.50;99.90
7576;DHT22;3829;50.798;4.358;2023-04-24T14:31:15;13.60;99.90
7576;DHT22;3829;50.798;4.358;2023-04-24T14:33:41;13.40;99.90
7576;DHT22;3829;50.798;4.358;2023-04-24T14:36:07;13.30;99.90
7576;DHT22;3829;50.798;4.358;2023-04-24T14:38:32;13.30;99.90
7576;DHT22;3829;50.798;4.358;2023-04-24T14:40:58;13.20;99.90
7576;DHT22;3829;50.798;4.358;2023-04-24T14:43:23;13.00;99.90
7576;DHT22;3829;50.798;4.358;2023-04-24T14:45:49;13.00;99.90
7576;DHT22;3829;50.798;4.358;2023-04-24T14:48:15;12.90;99.90
7576;DHT22;3829;50.798;4.358;2023-04-24T14:50:41;12.90;99.90
7576;DHT22;3829;50.798;4.358;2023-04-24T14:53:07;12.80;99.90
7576;DHT22;3829;50.798;4.358;2023-04-24T14:55:32;12.90;99.90
7576;DHT22;3829;50.798;4.358;2023-04-24T14:57:59;12.90;99.90
7576;DHT22;3829;50.798;4.358;2023-04-24T15:00:25;13.00;99.90
7576;DHT22;3829;50.798;4.358;2023-04-24T15:02:51;13.10;99.90
7576;DHT22;3829;50.798;4.358;2023-04-24T15:05:16;13.10;99.90
7576;DHT22;3829;50.798;4.358;2023-04-24T15:07:42;13.20;99.90
7576;DHT22;3829;50.798;4.358;2023-04-24T15:10:08;13.60;99.90
7576;DHT22;3829;50.798;4.358;2023-04-24T15:12:34;13.60;99.90
7576;DHT22;3829;50.798;4.358;2023-04-24T15:15:01;13.70;99.90
7576;DHT22;3829;50.798;4.358;2023-04-24T15:17:26;13.50;99.90
7576;DHT22;3829;50.798;4.358;2023-04-24T15:19:52;13.60;99.90
7576;DHT22;3829;50.798;4.358;2023-04-24T15:22:18;13.70;99.90
7576;DHT22;3829;50.798;4.358;2023-04-24T15:24:44;13.80;99.90
7576;DHT22;3829;50.798;4.358;2023-04-24T15:27:10;13.90;99.90
7576;DHT22;3829;50.798;4.358;2023-04-24T15:29:36;14.00;99.90
7576;DHT22;3829;50.798;4.358;2023-04-24T15:32:02;13.80;99.90
7576;DHT22;3829;50.798;4.358;2023-04-24T15:34:27;13.60;99.90
7576;DHT22;3829;50.798;4.358;2023-04-24T15:36:53;13.60;99.90
7576;DHT22;3829;50.798;4.358;2023-04-24T15:39:22;13.50;99.90
7576;DHT22;3829;50.798;4.358;2023-04-24T15:41:49;13.60;99.90
7576;DHT22;3829;50.798;4.358;2023-04-24T15:44:15;13.50;99.90
7576;DHT22;3829;50.798;4.358;2023-04-24T15:46:41;13.70;99.90
7576;DHT22;3829;50.798;4.358;2023-04-24T15:49:06;13.80;99.90
7576;DHT22;3829;50.798;4.358;2023-04-24T15:51:32;13.60;99.90
7576;DHT22;3829;50.798;4.358;2023-04-24T15:53:57;13.50;99.90
7576;DHT22;3829;50.798;4.358;2023-04-24T15:56:23;13.40;99.90
7576;DHT22;3829;50.798;4.358;2023-04-24T15:58:49;13.40;99.90
7576;DHT22;3829;50.798;4.358;2023-04-24T16:01:14;13.50;99.90
7576;DHT22;3829;50.798;4.358;2023-04-24T16:03:40;13.60;99.90
7576;DHT22;3829;50.798;4.358;2023-04-24T16:06:06;13.70;99.90